Time;durP1;ratioP1;P1;durP2;ratioP2;P2;SDS_P1;SDS_P2;PMS_P1;PMS_P2;Temp;Humidity;BMP_temperature;BMP_pressure;BME280_temperature;BME280_humidity;BME280_pressure;Samples;Min_cycle;Max_cycle;Signal;HPM_P1;HPM_P2
2022/07/31 00:01:48;;;;;;;6.50;5.50;;;;;;;15.43;100.00;99477.78;4823397;29;20519;-76
2022/07/31 00:04:13;;;;;;;7.40;5.10;;;;;;;15.39;100.00;99482.41;4823699;29;20058;-76
2022/07/31 00:06:40;;;;;;;7.07;5.65;;;;;;;15.44;100.00;99489.94;4823351;29;20137;-76
2022/07/31 00:09:05;;;;;;;8.68;5.38;;;;;;;15.34;100.00;99473.19;4823408;29;20094;-77
2022/07/31 00:11:30;;;;;;;8.10;5.38;;;;;;;15.37;100.00;99480.81;4823537;29;20042;-76
2022/07/31 00:13:56;;;;;;;5.97;5.18;;;;;;;15.41;100.00;99491.00;4823696;29;20071;-76
2022/07/31 00:16:21;;;;;;;6.38;5.57;;;;;;;15.42;100.00;99491.81;4823552;29;20055;-76
2022/07/31 00:18:46;;;;;;;6.40;5.80;;;;;;;15.35;100.00;99483.56;4823301;29;20574;-76
2022/07/31 00:21:12;;;;;;;9.50;5.57;;;;;;;15.39;100.00;99495.53;4823372;29;20033;-76
2022/07/31 00:23:39;;;;;;;6.10;5.22;;;;;;;15.36;100.00;99494.88;4823106;29;20125;-76
2022/07/31 00:26:06;;;;;;;5.85;5.30;;;;;;;15.40;100.00;99491.13;4823327;29;20030;-77
2022/07/31 00:28:31;;;;;;;6.93;5.63;;;;;;;15.39;100.00;99495.53;4823215;29;20062;-77
2022/07/31 00:30:57;;;;;;;6.93;5.32;;;;;;;15.39;100.00;99495.53;4823416;29;20110;-76
2022/07/31 00:33:22;;;;;;;5.40;4.90;;;;;;;15.38;100.00;99491.22;4823282;29;20388;-76
2022/07/31 00:35:48;;;;;;;8.35;5.65;;;;;;;15.31;100.00;99489.97;4823032;29;20038;-76
2022/07/31 00:38:13;;;;;;;6.82;5.10;;;;;;;15.28;100.00;99484.91;4823116;29;20034;-76
2022/07/31 00:40:46;;;;;;;5.00;4.47;;;;;;;15.32;100.00;99490.78;4823180;29;20508;-76
2022/07/31 00:43:13;;;;;;;5.65;4.97;;;;;;;15.36;100.00;99495.72;4823244;29;20034;-76
2022/07/31 00:45:39;;;;;;;5.75;5.15;;;;;;;15.38;100.00;99490.38;4822823;29;20475;-76
2022/07/31 00:48:05;;;;;;;6.55;5.18;;;;;;;15.30;100.00;99477.78;4822266;29;20052;-76
2022/07/31 00:50:30;;;;;;;5.05;4.55;;;;;;;15.31;100.00;99481.25;4823113;29;20069;-76
2022/07/31 00:52:56;;;;;;;6.78;5.35;;;;;;;15.32;100.00;99489.00;4822744;29;20465;-76
2022/07/31 00:55:21;;;;;;;6.38;5.18;;;;;;;15.34;100.00;99486.31;4823138;29;20031;-76
2022/07/31 00:57:47;;;;;;;6.05;5.55;;;;;;;15.29;100.00;99485.75;4822972;29;20433;-76
2022/07/31 01:00:13;;;;;;;6.80;4.78;;;;;;;15.31;100.00;99492.59;4822996;29;20034;-77
2022/07/31 01:02:38;;;;;;;5.30;4.80;;;;;;;15.28;100.00;99486.69;4822693;29;20402;-76
2022/07/31 01:05:04;;;;;;;5.57;5.07;;;;;;;15.34;100.00;99499.41;4822901;29;20046;-76
2022/07/31 01:07:29;;;;;;;5.40;4.90;;;;;;;15.33;100.00;99501.19;4822809;29;20042;-76
2022/07/31 01:09:56;;;;;;;7.00;4.93;;;;;;;15.32;100.00;99489.00;4822884;29;20023;-76
2022/07/31 01:12:28;;;;;;;5.07;4.57;;;;;;;15.27;100.00;99477.16;4822898;29;20047;-76
2022/07/31 01:15:03;;;;;;;6.32;4.88;;;;;;;15.29;100.00;99476.09;4822561;29;20415;-76
2022/07/31 01:17:30;;;;;;;5.65;5.15;;;;;;;15.31;100.00;99479.47;4822719;29;20380;-76
2022/07/31 01:19:56;;;;;;;7.00;5.35;;;;;;;15.36;100.00;99490.47;4822876;29;20121;-77
2022/07/31 01:22:44;;;;;;;4.97;4.47;;;;;;;15.37;100.00;99488.69;4822740;29;20062;-77
2022/07/31 01:25:31;;;;;;;6.20;5.60;;;;;;;15.37;100.00;99489.53;4822886;29;20022;-77
2022/07/31 01:28:08;;;;;;;5.18;4.60;;;;;;;15.36;100.00;99487.84;4822659;29;20399;-76
2022/07/31 01:30:47;;;;;;;5.10;4.65;;;;;;;15.35;100.00;99480.94;4822623;29;20086;-76
2022/07/31 01:33:17;;;;;;;5.40;4.95;;;;;;;15.28;100.00;99470.97;4822806;29;20491;-77
2022/07/31 01:36:01;;;;;;;6.38;5.28;;;;;;;15.31;100.00;99479.47;4822145;29;20045;-76
2022/07/31 01:38:35;;;;;;;5.38;4.57;;;;;;;15.31;100.00;99481.25;4822556;29;20038;-77
2022/07/31 01:41:06;;;;;;;5.70;5.00;;;;;;;15.31;100.00;99471.59;4822489;29;20034;-76
2022/07/31 01:43:32;;;;;;;;;;;;;;;15.37;100.00;99488.69;4823160;29;20038;-76
2022/07/31 01:46:01;;;;;;;6.85;5.93;;;;;;;15.35;100.00;99485.34;4822454;29;20279;-76
2022/07/31 01:48:27;;;;;;;6.57;5.40;;;;;;;15.28;100.00;99484.91;4822441;29;20105;-76
2022/07/31 01:50:55;;;;;;;6.55;5.88;;;;;;;15.33;100.00;99474.09;4822338;29;20121;-76
2022/07/31 01:53:22;;;;;;;5.63;5.05;;;;;;;15.29;100.00;99470.84;4822245;29;20027;-77
2022/07/31 01:55:52;;;;;;;8.55;5.53;;;;;;;15.34;100.00;99470.56;4822416;29;20158;-76
2022/07/31 01:58:20;;;;;;;5.97;5.22;;;;;;;15.29;100.00;99473.47;4823060;29;20065;-76
2022/07/31 02:00:48;;;;;;;6.88;5.45;;;;;;;15.35;100.00;99480.09;4825328;29;20509;-76
2022/07/31 02:03:13;;;;;;;7.38;6.18;;;;;;;15.30;100.00;99483.03;4825435;29;20054;-76
2022/07/31 02:05:43;;;;;;;5.90;5.38;;;;;;;15.24;100.00;99470.31;4825228;29;20141;-76
2022/07/31 02:08:10;;;;;;;6.50;5.20;;;;;;;15.30;100.00;99485.66;4825505;29;20080;-76
2022/07/31 02:10:37;;;;;;;10.68;5.75;;;;;;;15.32;100.00;99480.31;4825316;29;20264;-76
2022/07/31 02:13:04;;;;;;;6.55;5.18;;;;;;;15.32;100.00;99490.78;4825396;29;20038;-76
2022/07/31 02:15:31;;;;;;;9.35;6.28;;;;;;;15.34;100.00;99491.53;4825238;29;20022;-76
2022/07/31 02:17:58;;;;;;;6.03;5.45;;;;;;;15.27;100.00;99469.28;4824979;29;20183;-76
2022/07/31 02:20:25;;;;;;;6.63;5.85;;;;;;;15.28;100.00;99470.97;4825183;29;20037;-76
2022/07/31 02:22:52;;;;;;;7.15;5.72;;;;;;;15.34;100.00;99479.25;4825187;29;20094;-76
2022/07/31 02:25:17;;;;;;;5.88;5.25;;;;;;;15.34;100.00;99476.63;4825299;29;20074;-76
2022/07/31 02:27:44;;;;;;;7.68;5.53;;;;;;;15.39;100.00;99477.16;4824761;29;20039;-76
2022/07/31 02:30:11;;;;;;;6.43;5.82;;;;;;;15.37;100.00;99475.56;4824996;29;20421;-76
2022/07/31 02:32:37;;;;;;;6.55;5.75;;;;;;;15.36;100.00;99479.97;4825119;29;20038;-76
2022/07/31 02:35:04;;;;;;;7.65;6.15;;;;;;;15.34;100.00;99471.38;4824755;29;20031;-76
2022/07/31 02:37:32;;;;;;;6.75;6.05;;;;;;;15.39;100.00;99474.53;4825332;29;20090;-76
2022/07/31 02:39:59;;;;;;;6.30;5.38;;;;;;;15.36;100.00;99469.47;4825065;29;20127;-76
2022/07/31 02:42:25;;;;;;;6.78;5.75;;;;;;;15.42;100.00;99470.84;4824924;29;20030;-76
2022/07/31 02:44:51;;;;;;;7.10;6.00;;;;;;;15.44;100.00;99474.22;4824733;29;20479;-76
2022/07/31 02:47:17;;;;;;;7.70;5.72;;;;;;;15.44;100.00;99469.78;4824845;29;20038;-76
2022/07/31 02:49:44;;;;;;;6.05;5.35;;;;;;;15.45;100.00;99468.84;4824396;29;20042;-76
2022/07/31 02:52:09;;;;;;;9.68;6.20;;;;;;;15.40;100.00;99457.84;4824911;29;20032;-76
2022/07/31 02:54:39;;;;;;;6.93;5.50;;;;;;;15.44;100.00;99468.97;4824837;29;20458;-77
2022/07/31 02:57:05;;;;;;;6.47;5.83;;;;;;;15.35;100.00;99453.84;4824703;29;20054;-76
2022/07/31 02:59:35;;;;;;;8.13;5.80;;;;;;;15.38;100.00;99465.00;4824677;29;20271;-76
2022/07/31 03:02:00;;;;;;;8.32;6.22;;;;;;;15.41;100.00;99463.91;4824278;29;20395;-76
2022/07/31 03:04:25;;;;;;;7.00;6.30;;;;;;;15.43;100.00;99472.53;4824341;29;20038;-76
2022/07/31 03:06:52;;;;;;;8.27;6.05;;;;;;;15.35;100.00;99457.31;4824431;29;20109;-76
2022/07/31 03:09:17;;;;;;;9.40;6.28;;;;;;;15.43;100.00;99462.03;4824327;29;20034;-76
2022/07/31 03:11:42;;;;;;;5.70;5.20;;;;;;;15.37;100.00;99460.66;4823635;29;20067;-76
2022/07/31 03:14:10;;;;;;;6.65;5.82;;;;;;;15.41;100.00;99461.28;4824704;29;20440;-76
2022/07/31 03:16:38;;;;;;;8.63;6.22;;;;;;;15.30;100.00;99450.72;4824202;29;20574;-76
2022/07/31 03:19:04;;;;;;;6.40;5.80;;;;;;;15.41;100.00;99462.13;4824001;29;20429;-76
2022/07/31 03:21:30;;;;;;;7.15;6.00;;;;;;;15.42;100.00;99470.84;4824390;29;20042;-76
2022/07/31 03:23:57;;;;;;;6.60;6.00;;;;;;;15.41;100.00;99461.28;4824116;29;20042;-76
2022/07/31 03:26:22;;;;;;;6.60;6.00;;;;;;;15.41;100.00;99464.75;4824257;29;20056;-76
2022/07/31 03:28:48;;;;;;;8.52;7.20;;;;;;;15.40;100.00;99464.88;4823943;29;20479;-76
2022/07/31 03:31:13;;;;;;;7.53;6.65;;;;;;;15.37;100.00;99463.28;4824084;29;20031;-76
2022/07/31 03:33:38;;;;;;;7.68;6.32;;;;;;;15.31;100.00;99455.84;4824289;29;20038;-76
2022/07/31 03:36:04;;;;;;;7.82;6.32;;;;;;;15.29;100.00;99451.63;4823999;29;20101;-76
2022/07/31 03:38:29;;;;;;;7.70;6.35;;;;;;;15.29;100.00;99451.63;4824180;29;20034;-76
2022/07/31 03:40:55;;;;;;;8.18;6.15;;;;;;;15.28;100.00;99458.69;4823833;29;20030;-76
2022/07/31 03:43:21;;;;;;;7.05;6.15;;;;;;;15.32;100.00;99456.69;4824004;29;20075;-76
2022/07/31 03:45:50;;;;;;;8.23;6.20;;;;;;;15.31;100.00;99461.09;4823720;29;20034;-76
2022/07/31 03:48:16;;;;;;;6.45;5.70;;;;;;;15.26;100.00;99452.72;4824144;29;20034;-76
2022/07/31 03:50:42;;;;;;;9.27;6.72;;;;;;;15.32;100.00;99467.19;4823950;29;20066;-75
2022/07/31 03:53:09;;;;;;;8.05;5.78;;;;;;;15.18;100.00;99449.78;4824085;29;20031;-76
2022/07/31 03:55:37;;;;;;;9.00;6.38;;;;;;;15.29;100.00;99464.75;4823901;29;20138;-76
2022/07/31 03:58:02;;;;;;;7.45;6.70;;;;;;;15.28;100.00;99461.31;4823532;29;20034;-76
2022/07/31 04:00:28;;;;;;;9.40;6.28;;;;;;;15.30;100.00;99463.84;4823635;29;20218;-76
2022/07/31 04:02:55;;;;;;;9.88;6.65;;;;;;;15.21;100.00;99441.66;4823632;29;20034;-75
2022/07/31 04:05:22;;;;;;;8.45;7.00;;;;;;;15.24;100.00;99449.34;4823584;29;20082;-76
2022/07/31 04:07:47;;;;;;;7.70;6.93;;;;;;;15.31;100.00;99455.00;4823382;29;20062;-76
2022/07/31 04:10:13;;;;;;;7.03;5.80;;;;;;;15.29;100.00;99441.16;4823637;29;20547;-76
2022/07/31 04:12:38;;;;;;;6.82;6.13;;;;;;;15.31;100.00;99439.28;4823507;29;20163;-75
2022/07/31 04:15:04;;;;;;;7.60;5.97;;;;;;;15.25;100.00;99434.44;4823229;29;20042;-75
2022/07/31 04:17:29;;;;;;;7.65;6.30;;;;;;;15.29;100.00;99446.41;4823545;29;20038;-75
2022/07/31 04:19:55;;;;;;;6.13;5.40;;;;;;;15.32;100.00;99454.06;4823517;29;20037;-75
2022/07/31 04:22:20;;;;;;;6.78;6.00;;;;;;;15.19;100.00;99433.09;4823223;29;20023;-76
2022/07/31 04:24:45;;;;;;;8.73;6.15;;;;;;;15.31;100.00;99452.38;4823286;29;20031;-76
2022/07/31 04:27:11;;;;;;;7.90;5.97;;;;;;;15.31;100.00;99450.59;4823349;29;20052;-76
2022/07/31 04:29:36;;;;;;;7.55;5.53;;;;;;;15.32;100.00;99448.81;4823215;29;20121;-76
2022/07/31 04:32:02;;;;;;;7.22;5.75;;;;;;;15.31;100.00;99452.38;4823249;29;20042;-76
2022/07/31 04:34:28;;;;;;;5.82;5.15;;;;;;;15.31;100.00;99445.34;4823477;29;20066;-76
2022/07/31 04:36:53;;;;;;;7.85;6.05;;;;;;;15.33;100.00;99458.34;4823113;29;20463;-76
2022/07/31 04:39:18;;;;;;;8.57;5.80;;;;;;;15.35;100.00;99461.72;4823334;29;20034;-76
2022/07/31 04:41:44;;;;;;;7.25;5.60;;;;;;;15.37;100.00;99451.94;4823109;29;20059;-76
2022/07/31 04:44:09;;;;;;;6.80;6.18;;;;;;;15.38;100.00;99456.25;4822924;29;20117;-76
2022/07/31 04:46:34;;;;;;;6.68;5.97;;;;;;;15.37;100.00;99446.69;4823616;29;20065;-76
2022/07/31 04:49:00;;;;;;;8.40;6.10;;;;;;;15.32;100.00;99440.94;4823018;29;20045;-76
2022/07/31 04:51:25;;;;;;;6.55;5.90;;;;;;;15.35;100.00;99440.75;4823252;29;20109;-76
2022/07/31 04:53:51;;;;;;;8.32;6.00;;;;;;;15.42;100.00;99447.22;4822937;29;20030;-76
2022/07/31 04:56:33;;;;;;;8.57;6.78;;;;;;;15.43;100.00;99448.91;4822958;29;20031;-76
2022/07/31 04:59:00;;;;;;;8.32;6.55;;;;;;;15.51;100.00;99453.63;4822684;29;20091;-76
2022/07/31 05:01:25;;;;;;;8.25;6.07;;;;;;;15.52;100.00;99456.13;4823448;29;20113;-76
2022/07/31 05:03:51;;;;;;;7.35;6.35;;;;;;;15.48;100.00;99445.00;4822770;29;20030;-76
2022/07/31 05:06:16;;;;;;;8.40;6.28;;;;;;;15.53;100.00;99446.47;4823040;29;20452;-76
2022/07/31 05:08:42;;;;;;;8.07;5.80;;;;;;;15.53;100.00;99434.19;4822923;29;20043;-76
2022/07/31 05:11:23;;;;;;;5.88;5.28;;;;;;;15.58;100.00;99444.38;4822648;29;20030;-76
2022/07/31 05:13:53;;;;;;;11.80;6.53;;;;;;;15.67;100.00;99452.47;4822907;29;20060;-76
2022/07/31 05:16:19;;;;;;;8.90;6.40;;;;;;;15.65;100.00;99445.66;4822811;29;20049;-76
2022/07/31 05:18:46;;;;;;;7.05;6.35;;;;;;;15.73;100.00;99453.00;4822861;29;20064;-76
2022/07/31 05:21:13;;;;;;;8.07;6.25;;;;;;;15.76;100.00;99453.63;4822605;29;20064;-76
2022/07/31 05:23:43;;;;;;;8.07;6.20;;;;;;;15.82;100.00;99461.03;4822914;29;20062;-76
2022/07/31 05:26:09;;;;;;;6.63;6.00;;;;;;;15.77;100.00;99450.03;4822739;29;20041;-76
2022/07/31 05:28:35;;;;;;;8.90;7.05;;;;;;;15.87;100.00;99458.09;4822759;29;20387;-76
2022/07/31 05:31:00;;;;;;;7.30;5.97;;;;;;;15.84;100.00;99453.03;4822547;29;20038;-76
2022/07/31 05:33:27;;;;;;;6.90;6.20;;;;;;;15.92;100.00;99461.22;4823622;29;20083;-76
2022/07/31 05:35:53;;;;;;;8.60;6.32;;;;;;;15.89;100.00;99450.94;4825678;29;20057;-76
2022/07/31 05:38:18;;;;;;;8.07;6.40;;;;;;;15.90;100.00;99445.56;4825847;29;20070;-76
2022/07/31 05:40:44;;;;;;;6.30;5.70;;;;;;;16.01;100.00;99463.16;4826208;29;20065;-76
2022/07/31 05:43:09;;;;;;;11.52;6.50;;;;;;;16.02;100.00;99454.38;4825768;29;20117;-76
2022/07/31 05:45:35;;;;;;;8.65;6.05;;;;;;;16.08;100.00;99451.28;4825883;29;20034;-76
2022/07/31 05:48:01;;;;;;;16.08;6.50;;;;;;;16.15;100.00;99449.06;4825373;29;20030;-76
2022/07/31 05:50:26;;;;;;;9.05;7.10;;;;;;;16.20;100.00;99449.56;4825703;29;20038;-76
2022/07/31 05:52:51;;;;;;;7.40;6.53;;;;;;;16.25;100.00;99447.44;4825365;29;20086;-76
2022/07/31 05:55:17;;;;;;;10.52;6.10;;;;;;;16.30;100.00;99455.81;4825836;29;20036;-76
2022/07/31 05:57:42;;;;;;;7.45;6.65;;;;;;;16.31;100.00;99454.88;4825699;29;20033;-76
2022/07/31 06:00:08;;;;;;;8.82;6.75;;;;;;;16.26;100.00;99449.09;4825500;29;20069;-76
2022/07/31 06:02:34;;;;;;;7.45;6.68;;;;;;;16.33;100.00;99452.97;4825631;29;20060;-76
2022/07/31 06:05:00;;;;;;;8.30;6.28;;;;;;;16.38;100.00;99456.09;4825073;29;20084;-76
2022/07/31 06:07:25;;;;;;;9.73;6.35;;;;;;;16.38;100.00;99442.09;4825391;29;20059;-76
2022/07/31 06:09:51;;;;;;;8.13;6.90;;;;;;;16.46;100.00;99452.88;4825037;29;20391;-76
2022/07/31 06:12:16;;;;;;;6.82;5.95;;;;;;;16.50;100.00;99451.72;4825310;29;20119;-76
2022/07/31 06:14:42;;;;;;;9.07;6.82;;;;;;;16.56;100.00;99447.78;4825339;29;20039;-76
2022/07/31 06:17:07;;;;;;;10.32;6.40;;;;;;;16.67;100.00;99438.16;4825135;29;20160;-76
2022/07/31 06:19:33;;;;;;;8.57;6.10;;;;;;;16.80;100.00;99450.41;4825264;29;20043;-76
2022/07/31 06:21:59;;;;;;;7.28;6.68;;;;;;;16.85;100.00;99451.72;4825029;29;20026;-76
2022/07/31 06:24:24;;;;;;;8.25;6.40;;;;;;;16.90;100.00;99454.03;4825469;29;20035;-76
2022/07/31 06:26:50;;;;;;;6.95;6.05;;;;;;;16.99;100.00;99448.06;4825105;29;20030;-76
2022/07/31 06:29:16;;;;;;;10.38;6.68;;;;;;;17.04;100.00;99445.91;4825049;29;20068;-76
2022/07/31 06:31:41;;;;;;;7.20;5.72;;;;;;;17.14;100.00;99438.13;4825137;29;20110;-76
2022/07/31 06:34:07;;;;;;;6.38;5.75;;;;;;;17.23;100.00;99441.84;4824891;29;20064;-76
2022/07/31 06:36:32;;;;;;;9.90;6.75;;;;;;;17.37;100.00;99454.81;4824981;29;20023;-76
2022/07/31 06:38:57;;;;;;;8.68;6.32;;;;;;;17.48;100.00;99459.22;4824725;29;20398;-76
2022/07/31 06:44:07;;;;;;;7.78;6.32;;;;;;;17.64;100.00;99452.63;4824625;29;20559;-76
2022/07/31 06:46:32;;;;;;;6.85;6.20;;;;;;;17.85;100.00;99454.56;4824062;29;20030;-76
2022/07/31 06:48:58;;;;;;;7.43;6.40;;;;;;;17.98;100.00;99444.69;4824615;29;20083;-76
2022/07/31 06:51:23;;;;;;;9.02;5.72;;;;;;;18.22;100.00;99456.88;4824663;29;20087;-76
2022/07/31 06:53:49;;;;;;;9.30;5.22;;;;;;;18.44;100.00;99451.50;4824889;29;20026;-76
2022/07/31 06:56:14;;;;;;;9.05;5.60;;;;;;;18.66;100.00;99456.66;4824590;29;20110;-76
2022/07/31 06:58:39;;;;;;;8.32;6.00;;;;;;;18.83;100.00;99460.56;4824748;29;20087;-76
2022/07/31 07:01:05;;;;;;;5.68;5.10;;;;;;;18.94;100.00;99449.94;4824409;29;20029;-76
2022/07/31 07:03:30;;;;;;;7.82;5.75;;;;;;;19.02;100.00;99461.66;4824560;29;20038;-76
2022/07/31 07:05:55;;;;;;;8.18;5.93;;;;;;;19.02;100.00;99448.47;4824080;29;20457;-76
2022/07/31 07:08:21;;;;;;;6.00;5.20;;;;;;;19.24;100.00;99461.50;4824556;29;20475;-76
2022/07/31 07:10:46;;;;;;;9.23;5.78;;;;;;;19.50;100.00;99459.25;4824434;29;20035;-76
2022/07/31 07:13:11;;;;;;;7.95;5.15;;;;;;;19.72;100.00;99462.69;4824271;29;20022;-76
2022/07/31 07:15:37;;;;;;;6.72;5.22;;;;;;;19.87;100.00;99454.28;4830702;29;20120;-76
2022/07/31 07:18:02;;;;;;;6.63;5.22;;;;;;;20.15;100.00;99463.25;4842602;29;20045;-77
2022/07/31 07:20:27;;;;;;;6.90;4.72;;;;;;;20.40;100.00;99445.16;4842536;29;20033;-77
2022/07/31 07:22:53;;;;;;;5.97;4.75;;;;;;;20.93;100.00;99453.47;4842411;29;20049;-77
2022/07/31 07:25:19;;;;;;;6.07;5.43;;;;;;;21.46;100.00;99456.59;4842591;29;20040;-77
2022/07/31 07:27:45;;;;;;;6.97;4.80;;;;;;;22.44;100.00;99460.34;4842352;29;20064;-77
2022/07/31 07:30:10;;;;;;;9.35;5.10;;;;;;;23.36;100.00;99458.06;4842168;29;20037;-77
2022/07/31 07:32:36;;;;;;;5.00;4.43;;;;;;;23.64;100.00;99449.91;4842314;29;20082;-77
2022/07/31 07:35:02;;;;;;;7.15;4.47;;;;;;;23.74;98.89;99461.25;4841963;29;20069;-76
2022/07/31 07:37:28;;;;;;;8.73;5.15;;;;;;;23.52;98.44;99459.97;4842459;29;20037;-77
2022/07/31 07:39:54;;;;;;;6.53;4.32;;;;;;;22.98;99.66;99454.00;4842469;29;20037;-77
2022/07/31 07:42:19;;;;;;;7.13;4.18;;;;;;;22.64;100.00;99465.34;4842175;29;20030;-77
2022/07/31 07:44:45;;;;;;;5.03;3.90;;;;;;;22.43;100.00;99464.81;4842229;29;20066;-77
2022/07/31 07:47:10;;;;;;;5.38;4.35;;;;;;;22.33;100.00;99469.34;4841848;29;20074;-77
2022/07/31 07:49:35;;;;;;;6.45;4.15;;;;;;;22.61;100.00;99451.53;4841861;29;20034;-77
2022/07/31 07:52:01;;;;;;;5.13;3.97;;;;;;;22.97;100.00;99455.00;4842163;29;20130;-77
2022/07/31 07:54:27;;;;;;;6.88;4.03;;;;;;;22.88;100.00;99448.78;4842049;29;20030;-77
2022/07/31 07:56:53;;;;;;;6.18;3.90;;;;;;;22.32;100.00;99449.13;4841618;29;20440;-77
2022/07/31 07:59:19;;;;;;;6.60;3.70;;;;;;;21.71;100.00;99452.44;4841707;29;20120;-77
2022/07/31 08:01:44;;;;;;;9.90;3.90;;;;;;;21.23;100.00;99456.06;4841859;29;20121;-77
2022/07/31 08:04:10;;;;;;;6.93;3.95;;;;;;;20.91;100.00;99457.28;4841519;29;20037;-77
2022/07/31 08:06:35;;;;;;;8.77;4.10;;;;;;;20.62;100.00;99455.50;4841986;29;20135;-77
2022/07/31 08:09:00;;;;;;;4.78;4.00;;;;;;;20.33;100.00;99434.28;4841749;29;20558;-77
2022/07/31 08:11:26;;;;;;;6.35;4.30;;;;;;;20.74;100.00;99450.06;4841647;29;20483;-77
2022/07/31 08:13:51;;;;;;;5.22;3.90;;;;;;;21.42;100.00;99446.28;4841916;29;20113;-77
2022/07/31 08:16:20;;;;;;;11.02;4.50;;;;;;;21.76;100.00;99448.34;4841229;29;20034;-77
2022/07/31 08:18:47;;;;;;;5.25;4.40;;;;;;;21.47;100.00;99450.31;4841335;29;20081;-77
2022/07/31 08:21:12;;;;;;;5.22;3.92;;;;;;;21.16;100.00;99447.88;4841450;29;20086;-77
2022/07/31 08:23:37;;;;;;;8.70;4.60;;;;;;;20.85;100.00;99455.19;4841692;29;20033;-77
2022/07/31 08:26:07;;;;;;;8.32;4.15;;;;;;;20.77;100.00;99465.63;4841581;29;20033;-77
2022/07/31 08:28:33;;;;;;;4.27;3.53;;;;;;;20.81;100.00;99454.63;4841390;29;20467;-77
2022/07/31 08:30:59;;;;;;;7.45;4.50;;;;;;;20.80;100.00;99460.06;4841163;29;20073;-77
2022/07/31 08:33:25;;;;;;;6.53;4.60;;;;;;;20.62;100.00;99465.25;4841313;29;20036;-77
2022/07/31 08:35:50;;;;;;;8.15;4.30;;;;;;;20.43;100.00;99458.94;4841310;29;20389;-77
2022/07/31 08:38:17;;;;;;;5.28;4.40;;;;;;;20.52;100.00;99461.75;4841076;29;20038;-77
2022/07/31 08:40:43;;;;;;;5.72;4.25;;;;;;;20.51;100.00;99449.50;4841321;29;20117;-77
2022/07/31 08:43:09;;;;;;;9.05;4.70;;;;;;;20.64;100.00;99447.41;4841222;29;20034;-77
2022/07/31 08:45:36;;;;;;;7.18;4.18;;;;;;;20.82;100.00;99452.84;4841663;29;20140;-77
2022/07/31 08:48:05;;;;;;;5.40;3.97;;;;;;;20.91;100.00;99460.75;4840865;29;20036;-77
2022/07/31 08:50:31;;;;;;;4.90;3.72;;;;;;;20.88;100.00;99455.72;4841628;29;20030;-77
2022/07/31 08:52:58;;;;;;;8.85;4.50;;;;;;;20.88;100.00;99468.97;4841409;29;20094;-77
2022/07/31 08:55:24;;;;;;;5.95;4.47;;;;;;;20.81;100.00;99461.72;4841252;29;20082;-77
2022/07/31 08:57:50;;;;;;;6.88;4.28;;;;;;;20.93;100.00;99460.59;4841476;29;20038;-77
2022/07/31 09:00:18;;;;;;;7.43;4.88;;;;;;;21.12;100.00;99455.28;4840825;29;20113;-77
2022/07/31 09:02:43;;;;;;;5.80;3.95;;;;;;;21.16;100.00;99447.88;4841018;29;20497;-77
2022/07/31 09:05:09;;;;;;;6.15;4.13;;;;;;;21.25;100.00;99433.75;4840742;29;20058;-77
2022/07/31 09:07:35;;;;;;;5.03;4.00;;;;;;;21.38;100.00;99447.53;4841181;29;20372;-77
2022/07/31 09:10:02;;;;;;;4.57;4.13;;;;;;;21.53;100.00;99433.81;4844285;29;20154;-77
2022/07/31 09:12:29;;;;;;;5.07;3.92;;;;;;;21.71;100.00;99445.31;4844810;29;20057;-77
2022/07/31 09:14:55;;;;;;;5.88;3.45;;;;;;;21.77;100.00;99433.28;4844693;29;20038;-77
2022/07/31 09:17:31;;;;;;;5.05;3.63;;;;;;;21.79;100.00;99441.94;4844565;29;20113;-77
2022/07/31 09:19:56;;;;;;;5.43;3.50;;;;;;;21.79;100.00;99433.97;4844841;29;20045;-77
2022/07/31 09:22:24;;;;;;;3.88;3.28;;;;;;;21.75;100.00;99436.09;4844398;29;20132;-77
2022/07/31 09:24:52;;;;;;;7.63;3.75;;;;;;;21.80;100.00;99430.34;4844605;29;20030;-77
2022/07/31 09:27:18;;;;;;;4.43;3.53;;;;;;;21.78;100.00;99411.06;4844300;29;20038;-77
2022/07/31 09:29:47;;;;;;;4.45;2.92;;;;;;;22.08;100.00;99423.16;4844270;29;20026;-77
2022/07/31 09:32:18;;;;;;;5.05;3.35;;;;;;;22.17;100.00;99431.09;4844345;29;20116;-77
2022/07/31 09:34:45;;;;;;;4.50;2.72;;;;;;;22.05;99.60;99407.56;4844384;29;20417;-77
2022/07/31 09:37:11;;;;;;;4.03;2.60;;;;;;;22.25;100.00;99421.53;4844179;29;20026;-77
2022/07/31 09:39:37;;;;;;;4.43;2.80;;;;;;;22.36;98.66;99422.13;4844329;29;20277;-76
2022/07/31 09:42:05;;;;;;;7.25;2.85;;;;;;;22.30;95.57;99428.06;4843944;29;20041;-77
2022/07/31 09:44:39;;;;;;;3.75;2.40;;;;;;;22.27;97.82;99430.19;4844352;29;20479;-77
2022/07/31 09:47:05;;;;;;;6.72;3.45;;;;;;;22.29;95.73;99430.84;4843862;29;20475;-77
2022/07/31 09:49:32;;;;;;;4.68;2.78;;;;;;;22.32;92.83;99422.59;4844121;29;20034;-77
2022/07/31 09:51:59;;;;;;;4.03;2.92;;;;;;;22.36;92.78;99419.47;4844054;29;20076;-77
2022/07/31 09:54:28;;;;;;;5.50;2.88;;;;;;;22.53;95.44;99424.94;4843743;29;20436;-77
2022/07/31 09:56:54;;;;;;;3.72;2.70;;;;;;;22.53;91.44;99412.50;4843903;29;20041;-76
2022/07/31 09:59:19;;;;;;;4.93;2.78;;;;;;;22.45;90.97;99420.38;4844073;29;20416;-76
2022/07/31 10:01:49;;;;;;;4.38;2.92;;;;;;;22.45;92.96;99419.56;4843957;29;20078;-77
2022/07/31 10:04:20;;;;;;;7.53;2.72;;;;;;;22.51;90.61;99417.13;4843674;29;20033;-77
2022/07/31 10:06:47;;;;;;;4.53;2.22;;;;;;;22.59;88.35;99429.63;4843642;29;20264;-76
2022/07/31 10:09:16;;;;;;;3.28;2.40;;;;;;;22.62;87.18;99426.66;4843841;29;20048;-77
2022/07/31 10:11:43;;;;;;;3.97;2.50;;;;;;;22.66;88.71;99426.19;4843962;29;20057;-77
2022/07/31 10:14:12;;;;;;;5.68;2.50;;;;;;;22.71;87.19;99419.59;4843683;29;20057;-77
2022/07/31 10:16:40;;;;;;;4.32;2.60;;;;;;;22.71;83.93;99422.25;4843576;29;20213;-77
2022/07/31 10:19:11;;;;;;;4.43;2.60;;;;;;;22.87;86.56;99420.53;4843019;29;20394;-77
2022/07/31 10:21:41;;;;;;;3.92;2.55;;;;;;;23.05;86.75;99425.00;4843409;29;20439;-77
2022/07/31 10:24:08;;;;;;;5.93;2.33;;;;;;;22.99;85.70;99423.81;4843635;29;20033;-77
2022/07/31 10:26:34;;;;;;;2.67;2.20;;;;;;;23.11;88.18;99422.56;4843811;29;20245;-77
2022/07/31 10:28:59;;;;;;;3.00;2.47;;;;;;;23.28;87.48;99412.84;4843494;29;20146;-77
2022/07/31 10:31:25;;;;;;;4.97;2.33;;;;;;;23.30;81.73;99415.34;4843537;29;20041;-76
2022/07/31 10:33:51;;;;;;;3.75;2.22;;;;;;;23.21;82.94;99434.88;4843308;29;20018;-77
2022/07/31 10:36:28;;;;;;;4.50;2.40;;;;;;;23.15;85.07;99431.88;4843019;29;20034;-77
2022/07/31 10:39:00;;;;;;;4.50;2.60;;;;;;;23.02;81.36;99414.69;4843436;29;20026;-77
2022/07/31 10:41:40;;;;;;;3.28;2.20;;;;;;;23.10;82.15;99428.03;4843159;29;20077;-77
2022/07/31 10:44:38;;;;;;;4.53;2.45;;;;;;;23.16;78.06;99433.53;4843076;29;20049;-77
2022/07/31 10:47:16;;;;;;;4.35;2.22;;;;;;;23.28;80.86;99431.44;4843225;29;20440;-77
2022/07/31 10:49:47;;;;;;;3.05;2.28;;;;;;;23.43;78.84;99421.06;4842981;29;20065;-77
2022/07/31 10:52:33;;;;;;;5.03;2.03;;;;;;;23.55;78.48;99419.75;4842966;29;20041;-77
2022/07/31 10:55:00;;;;;;;3.22;2.00;;;;;;;23.47;76.78;99418.91;4842613;29;20049;-77
2022/07/31 10:57:31;;;;;;;3.45;2.03;;;;;;;23.62;74.81;99415.47;4842953;29;20038;-77
2022/07/31 11:00:20;;;;;;;2.42;2.22;;;;;;;23.68;73.58;99418.50;4843005;29;20034;-77
2022/07/31 11:02:46;;;;;;;3.53;2.30;;;;;;;23.68;74.36;99422.00;4842964;29;20037;-77
2022/07/31 11:05:12;;;;;;;2.20;2.00;;;;;;;23.64;75.35;99421.47;4842330;29;20130;-77
2022/07/31 11:07:42;;;;;;;3.97;1.95;;;;;;;23.68;75.83;99408.69;4842719;29;20073;-77
2022/07/31 11:10:19;;;;;;;2.42;2.10;;;;;;;23.82;72.64;99415.25;4842784;29;20033;-77
2022/07/31 11:12:45;;;;;;;2.30;1.98;;;;;;;23.94;70.72;99395.34;4842818;29;20112;-77
2022/07/31 11:15:18;;;;;;;5.03;2.22;;;;;;;24.10;72.21;99410.47;4842491;29;20038;-77
2022/07/31 11:17:43;;;;;;;4.70;2.17;;;;;;;24.10;70.61;99400.69;4842474;29;20039;-77
2022/07/31 11:20:22;;;;;;;3.38;1.88;;;;;;;24.10;71.25;99397.16;4842274;29;20521;-77
2022/07/31 11:22:56;;;;;;;2.00;1.90;;;;;;;23.98;67.47;99407.31;4842689;29;20113;-77
2022/07/31 11:25:22;;;;;;;3.40;2.08;;;;;;;23.88;67.99;99411.94;4842398;29;20045;-77
2022/07/31 11:27:48;;;;;;;1.70;1.60;;;;;;;23.85;70.31;99402.47;4842490;29;20025;-77
2022/07/31 11:30:14;;;;;;;3.67;2.60;;;;;;;23.84;69.49;99400.78;4842242;29;20034;-77